createdAt,value
2018-08-23T00:01:28.565Z,21.10
2018-08-23T00:04:13.560Z,21.00
2018-08-23T00:06:55.929Z,21.00
2018-08-23T00:09:24.512Z,21.00
2018-08-23T00:11:53.068Z,21.00
2018-08-23T00:14:21.649Z,21.00
2018-08-23T00:16:50.295Z,21.00
2018-08-23T00:19:18.836Z,21.00
2018-08-23T00:21:49.421Z,21.00
2018-08-23T00:24:20.071Z,21.00
2018-08-23T00:26:50.571Z,21.00
2018-08-23T00:29:24.254Z,21.00
2018-08-23T00:31:54.625Z,21.00
2018-08-23T00:34:34.029Z,21.00
2018-08-23T00:37:04.024Z,21.00
2018-08-23T00:39:32.664Z,20.90
2018-08-23T00:42:04.174Z,20.80
2018-08-23T00:44:48.105Z,20.90
2018-08-23T00:47:16.759Z,20.80
2018-08-23T00:49:45.324Z,20.80
2018-08-23T00:52:15.052Z,20.80
2018-08-23T00:54:43.594Z,20.80
2018-08-23T00:57:12.202Z,20.70
2018-08-23T00:59:40.778Z,20.70
2018-08-23T01:02:11.011Z,20.70
2018-08-23T01:04:43.193Z,20.70
2018-08-23T01:07:13.793Z,20.70
2018-08-23T01:09:45.021Z,20.70
2018-08-23T01:12:13.861Z,20.60
2018-08-23T01:14:42.468Z,20.60
2018-08-23T01:17:16.415Z,20.70
2018-08-23T01:19:50.282Z,20.60
2018-08-23T01:22:18.845Z,20.50
2018-08-23T01:24:48.467Z,20.50
2018-08-23T01:27:23.701Z,20.40
2018-08-23T01:29:52.336Z,20.40
2018-08-23T01:32:35.437Z,20.40
2018-08-23T01:35:04.101Z,20.40
2018-08-23T01:37:37.853Z,20.30
2018-08-23T01:40:09.176Z,20.30
2018-08-23T01:42:38.876Z,20.30
2018-08-23T01:45:09.597Z,20.20
2018-08-23T01:47:43.962Z,20.10
2018-08-23T01:50:13.664Z,20.10
2018-08-23T01:52:50.464Z,20.00
2018-08-23T01:55:19.733Z,19.90
2018-08-23T01:57:48.630Z,19.90
2018-08-23T02:00:33.927Z,19.90
2018-08-23T02:03:03.085Z,19.80
2018-08-23T02:05:31.645Z,19.90
2018-08-23T02:08:00.221Z,19.90
2018-08-23T02:10:28.754Z,19.80
2018-08-23T02:12:58.245Z,19.80
2018-08-23T02:15:30.273Z,19.70
2018-08-23T02:17:59.206Z,19.70
2018-08-23T02:20:28.423Z,19.70
2018-08-23T02:22:56.982Z,19.80
2018-08-23T02:25:25.598Z,19.70
2018-08-23T02:27:59.052Z,19.70
2018-08-23T02:30:41.098Z,19.70
2018-08-23T02:33:10.854Z,19.60
2018-08-23T02:35:39.754Z,19.50
2018-08-23T02:38:08.981Z,19.60
2018-08-23T02:40:38.885Z,19.50
2018-08-23T02:43:07.459Z,19.50
2018-08-23T02:45:41.369Z,19.60
2018-08-23T02:48:09.916Z,19.50
2018-08-23T02:50:38.466Z,19.50
2018-08-23T02:53:23.686Z,19.40
2018-08-23T02:55:53.401Z,19.50
2018-08-23T02:58:23.241Z,19.50
2018-08-23T03:00:51.800Z,19.50
2018-08-23T03:03:20.448Z,19.50
2018-08-23T03:05:48.993Z,19.50
2018-08-23T03:08:21.613Z,19.50
2018-08-23T03:10:50.205Z,19.50
2018-08-23T03:13:23.522Z,19.60
2018-08-23T03:15:52.065Z,19.70
2018-08-23T03:18:20.617Z,19.60
2018-08-23T03:20:50.117Z,19.70
2018-08-23T03:23:18.663Z,19.80
2018-08-23T03:25:47.205Z,19.80
2018-08-23T03:28:15.748Z,19.60
2018-08-23T03:30:46.950Z,19.70
2018-08-23T03:33:15.522Z,19.70
2018-08-23T03:35:44.072Z,19.70
2018-08-23T03:38:12.681Z,19.70
2018-08-23T03:40:41.241Z,19.70
2018-08-23T03:43:09.740Z,19.70
2018-08-23T03:45:38.337Z,19.60
2018-08-23T03:48:06.885Z,19.60
2018-08-23T03:50:39.589Z,19.50
2018-08-23T03:53:08.112Z,19.40
2018-08-23T03:55:36.946Z,19.40
2018-08-23T03:58:05.612Z,19.50
2018-08-23T04:00:39.389Z,19.50
2018-08-23T04:03:13.201Z,19.40
2018-08-23T04:05:41.785Z,19.40
2018-08-23T04:08:10.338Z,19.40
2018-08-23T04:10:38.942Z,19.50
2018-08-23T04:13:07.579Z,19.40
2018-08-23T04:15:36.153Z,19.40
2018-08-23T04:18:16.049Z,19.40
2018-08-23T04:20:51.960Z,19.30
2018-08-23T04:23:20.596Z,19.30
2018-08-23T04:25:49.145Z,19.30
2018-08-23T04:28:17.710Z,19.30
2018-08-23T04:30:46.314Z,19.30
2018-08-23T04:33:14.908Z,19.20
2018-08-23T04:35:43.477Z,19.40
2018-08-23T04:38:12.027Z,19.40
2018-08-23T04:40:46.180Z,19.40
2018-08-23T04:43:14.830Z,19.30
2018-08-23T04:45:43.443Z,19.20
2018-08-23T04:48:12.045Z,19.20
2018-08-23T04:50:40.674Z,19.20
2018-08-23T04:53:09.385Z,19.20
2018-08-23T04:55:37.985Z,19.20
2018-08-23T04:58:06.513Z,19.20
2018-08-23T05:00:35.089Z,19.20
2018-08-23T05:03:03.777Z,19.30
2018-08-23T05:05:33.250Z,19.30
2018-08-23T05:08:01.803Z,19.30
2018-08-23T05:10:30.467Z,19.40
2018-08-23T05:12:59.042Z,19.40
2018-08-23T05:15:27.657Z,19.50
2018-08-23T05:17:56.249Z,19.50
2018-08-23T05:20:24.891Z,19.50
2018-08-23T05:22:58.827Z,19.50
2018-08-23T05:25:27.386Z,19.60
2018-08-23T05:28:19.570Z,19.50
2018-08-23T05:30:49.069Z,19.70
2018-08-23T05:33:18.560Z,19.60
2018-08-23T05:35:47.273Z,19.70
2018-08-23T05:38:16.461Z,19.80
2018-08-23T05:40:52.098Z,19.80
2018-08-23T05:43:20.748Z,19.90
2018-08-23T05:45:50.788Z,20.00
2018-08-23T05:48:32.389Z,20.00
2018-08-23T05:51:02.302Z,20.10
2018-08-23T05:53:30.995Z,20.10
2018-08-23T05:56:00.609Z,20.20
2018-08-23T05:58:32.453Z,20.30
2018-08-23T06:01:04.033Z,20.40
2018-08-23T06:03:32.558Z,20.50
2018-08-23T06:06:01.204Z,20.50
2018-08-23T06:08:29.822Z,20.70
2018-08-23T06:11:04.750Z,20.80
2018-08-23T06:13:33.348Z,20.90
2018-08-23T06:16:01.990Z,21.00
2018-08-23T06:18:30.562Z,21.10
2018-08-23T06:20:59.125Z,21.20
2018-08-23T06:23:37.711Z,21.40
2018-08-23T06:26:06.952Z,21.40
2018-08-23T06:28:35.558Z,21.50
2018-08-23T06:31:05.519Z,21.60
2018-08-23T06:33:39.993Z,21.70
2018-08-23T06:36:09.957Z,21.80
2018-08-23T06:38:40.548Z,21.90
2018-08-23T06:41:09.438Z,21.90
2018-08-23T06:43:44.008Z,21.80
2018-08-23T06:46:12.685Z,22.00
2018-08-23T06:48:41.231Z,22.20
2018-08-23T06:51:10.951Z,22.30
2018-08-23T06:53:47.366Z,22.40
2018-08-23T06:56:17.723Z,22.40
2018-08-23T06:58:46.317Z,22.40
2018-08-23T07:01:31.423Z,22.60
2018-08-23T07:04:10.516Z,22.70
2018-08-23T07:06:39.153Z,22.80
2018-08-23T07:09:14.283Z,23.00
2018-08-23T07:11:43.223Z,23.20
2018-08-23T07:14:15.301Z,23.40
2018-08-23T07:16:45.112Z,23.70
2018-08-23T07:19:25.318Z,23.80
2018-08-23T07:21:54.743Z,24.00
2018-08-23T07:24:36.618Z,24.40
2018-08-23T07:27:07.458Z,24.80
2018-08-23T07:29:36.029Z,25.10
2018-08-23T07:32:06.422Z,25.30
2018-08-23T07:34:35.588Z,25.70
2018-08-23T07:37:08.169Z,26.30
2018-08-23T07:39:36.847Z,27.00
2018-08-23T07:42:05.401Z,27.90
2018-08-23T07:44:34.028Z,28.60
2018-08-23T07:47:02.601Z,29.70
2018-08-23T07:49:31.928Z,30.10
2018-08-23T07:52:00.489Z,30.90
2018-08-23T07:54:29.104Z,30.50
2018-08-23T07:56:57.693Z,31.20
2018-08-23T07:59:26.442Z,31.30
2018-08-23T08:01:55.116Z,30.80
2018-08-23T08:04:23.702Z,31.20
2018-08-23T08:06:52.402Z,32.00
2018-08-23T08:09:25.353Z,32.30
2018-08-23T08:11:59.223Z,32.50
2018-08-23T08:14:33.129Z,32.50
2018-08-23T08:17:08.477Z,33.80
2018-08-23T08:19:39.585Z,34.40
2018-08-23T08:22:08.221Z,34.60
2018-08-23T08:24:37.896Z,34.50
2018-08-23T08:27:06.554Z,36.10
2018-08-23T08:29:39.776Z,36.90
2018-08-23T08:32:10.125Z,37.70
2018-08-23T08:34:42.857Z,38.30
2018-08-23T08:37:11.444Z,37.90
2018-08-23T08:39:40.214Z,37.00
2018-08-23T08:42:12.480Z,38.10
2018-08-23T08:44:41.133Z,38.40
2018-08-23T08:47:09.859Z,38.70
2018-08-23T08:49:39.042Z,38.60
2018-08-23T08:52:08.066Z,38.10
2018-08-23T08:54:36.678Z,39.00
2018-08-23T08:57:05.705Z,39.10
2018-08-23T08:59:34.306Z,39.20
2018-08-23T09:02:03.232Z,39.30
2018-08-23T09:04:37.227Z,39.50
2018-08-23T09:07:06.218Z,39.30
2018-08-23T09:09:36.239Z,38.50
2018-08-23T09:12:12.302Z,39.10
2018-08-23T09:14:42.324Z,39.30
2018-08-23T09:17:27.619Z,39.40
2018-08-23T09:20:06.835Z,39.40
2018-08-23T09:22:39.620Z,39.50
2018-08-23T09:25:12.293Z,39.80
2018-08-23T09:27:41.018Z,39.80
2018-08-23T09:30:15.743Z,38.30
2018-08-23T09:32:47.598Z,38.80
2018-08-23T09:35:17.127Z,39.40
2018-08-23T09:37:46.952Z,39.80
2018-08-23T09:40:15.590Z,40.00
2018-08-23T09:42:44.238Z,40.10
2018-08-23T09:45:14.655Z,39.80
2018-08-23T09:47:43.353Z,39.00
2018-08-23T09:50:12.082Z,39.90
2018-08-23T09:52:43.704Z,37.50
2018-08-23T09:55:13.601Z,38.90
2018-08-23T09:57:42.813Z,39.60
2018-08-23T10:00:12.895Z,39.30
2018-08-23T10:02:46.902Z,38.30
2018-08-23T10:05:20.911Z,38.20
2018-08-23T10:07:54.714Z,39.40
2018-08-23T10:10:28.613Z,39.70
2018-08-23T10:13:02.396Z,39.10
2018-08-23T10:15:36.429Z,39.30
2018-08-23T10:18:10.242Z,39.60
2018-08-23T10:20:44.984Z,40.00
2018-08-23T10:23:15.039Z,40.10
2018-08-23T10:26:03.986Z,39.90
2018-08-23T10:28:37.789Z,38.90
2018-08-23T10:31:06.613Z,38.90
2018-08-23T10:33:35.196Z,38.00
2018-08-23T10:36:03.777Z,38.40
2018-08-23T10:38:32.401Z,38.70
2018-08-23T10:41:04.055Z,38.20
2018-08-23T10:43:37.835Z,38.40
2018-08-23T10:46:06.930Z,38.30
2018-08-23T10:48:35.504Z,38.30
2018-08-23T10:51:04.164Z,37.90
2018-08-23T10:53:32.681Z,37.90
2018-08-23T10:56:01.259Z,37.60
2018-08-23T10:58:29.957Z,36.00
2018-08-23T11:00:58.534Z,36.00
2018-08-23T11:03:27.173Z,36.10
2018-08-23T11:05:55.751Z,36.20
2018-08-23T11:08:32.519Z,36.50
2018-08-23T11:11:06.517Z,36.30
2018-08-23T11:13:40.485Z,36.00
2018-08-23T11:16:14.271Z,35.80
2018-08-23T11:18:48.105Z,36.10
2018-08-23T11:21:17.682Z,36.20
2018-08-23T11:23:46.825Z,36.10
2018-08-23T11:26:22.650Z,36.50
2018-08-23T11:28:51.577Z,36.70
2018-08-23T11:31:25.400Z,36.80
2018-08-23T11:33:54.129Z,36.90
2018-08-23T11:36:22.797Z,37.10
2018-08-23T11:38:51.466Z,36.80
2018-08-23T11:41:20.328Z,36.50
2018-08-23T11:43:49.253Z,36.70
2018-08-23T11:46:19.139Z,36.90
2018-08-23T11:48:48.247Z,37.00
2018-08-23T11:51:17.531Z,36.10
2018-08-23T11:53:46.738Z,35.90
2018-08-23T11:56:15.309Z,36.40
2018-08-23T11:58:44.194Z,36.70
2018-08-23T12:01:14.008Z,36.70
2018-08-23T12:03:42.822Z,36.70
2018-08-23T12:06:12.860Z,36.30
2018-08-23T12:08:41.955Z,36.20
2018-08-23T12:11:10.629Z,36.00
2018-08-23T12:13:39.453Z,35.50
2018-08-23T12:16:08.965Z,35.60
2018-08-23T12:18:38.313Z,35.30
2018-08-23T12:21:07.336Z,34.70
2018-08-23T12:23:36.088Z,35.00
2018-08-23T12:26:04.700Z,35.20
2018-08-23T12:28:38.542Z,35.20
2018-08-23T12:31:07.161Z,35.40
2018-08-23T12:33:35.841Z,35.60
2018-08-23T12:36:09.290Z,35.80
2018-08-23T12:38:43.381Z,35.80
2018-08-23T12:41:17.399Z,36.00
2018-08-23T12:43:48.510Z,36.10
2018-08-23T12:46:17.824Z,36.00
2018-08-23T12:48:46.838Z,36.00
2018-08-23T12:51:15.521Z,35.30
2018-08-23T12:53:44.165Z,35.00
2018-08-23T12:56:12.823Z,34.70
2018-08-23T12:58:41.426Z,34.10
2018-08-23T13:01:10.114Z,33.70
2018-08-23T13:03:38.840Z,33.50
2018-08-23T13:06:07.577Z,33.10
2018-08-23T13:08:36.194Z,32.50
2018-08-23T13:11:04.910Z,31.70
2018-08-23T13:13:33.479Z,31.50
2018-08-23T13:16:02.060Z,31.10
2018-08-23T13:18:30.666Z,30.80
2018-08-23T13:20:59.446Z,30.70
2018-08-23T13:23:28.029Z,30.30
2018-08-23T13:25:58.001Z,30.10
2018-08-23T13:28:27.560Z,29.80
2018-08-23T13:30:56.119Z,29.00
2018-08-23T13:33:25.685Z,28.20
2018-08-23T13:35:54.351Z,27.90
2018-08-23T13:38:22.996Z,27.00
2018-08-23T13:40:51.573Z,26.80
2018-08-23T13:43:20.234Z,26.00
2018-08-23T13:45:48.780Z,25.60
2018-08-23T13:48:17.413Z,25.00
2018-08-23T13:50:46.008Z,24.60
2018-08-23T13:53:14.730Z,24.30
2018-08-23T13:55:43.359Z,24.00
2018-08-23T13:58:11.974Z,24.10
2018-08-23T14:00:41.580Z,23.90
2018-08-23T14:03:11.053Z,23.70
2018-08-23T14:05:40.807Z,23.80
2018-08-23T14:08:09.882Z,23.90
2018-08-23T14:10:38.500Z,23.80
2018-08-23T14:13:07.407Z,23.60
2018-08-23T14:15:41.147Z,23.20
2018-08-23T14:18:09.816Z,23.20
2018-08-23T14:20:38.426Z,23.10
2018-08-23T14:23:07.201Z,23.00
2018-08-23T14:25:35.821Z,22.80
2018-08-23T14:28:04.560Z,22.50
2018-08-23T14:30:33.137Z,22.60
2018-08-23T14:33:01.782Z,22.60
2018-08-23T14:35:30.369Z,22.40
2018-08-23T14:37:59.202Z,22.40
2018-08-23T14:40:27.864Z,22.20
2018-08-23T14:42:56.484Z,22.30
2018-08-23T14:45:30.510Z,22.20
2018-08-23T14:48:04.628Z,22.40
2018-08-23T14:50:34.601Z,22.40
2018-08-23T14:53:03.617Z,22.60
2018-08-23T14:55:37.564Z,22.30
2018-08-23T14:58:06.532Z,22.40
2018-08-23T15:00:35.100Z,22.40
2018-08-23T15:03:03.721Z,22.40
2018-08-23T15:05:32.336Z,22.40
2018-08-23T15:08:01.015Z,22.50
2018-08-23T15:10:29.590Z,22.40
2018-08-23T15:12:58.809Z,22.20
2018-08-23T15:15:32.752Z,22.10
2018-08-23T15:18:02.586Z,22.00
2018-08-23T15:20:31.956Z,21.90
2018-08-23T15:23:00.541Z,22.00
2018-08-23T15:25:29.123Z,21.80
2018-08-23T15:27:57.690Z,21.80
2018-08-23T15:30:26.304Z,21.80
2018-08-23T15:32:54.918Z,21.80
2018-08-23T15:35:23.556Z,21.70
2018-08-23T15:37:52.201Z,21.40
2018-08-23T15:40:20.795Z,21.40
2018-08-23T15:42:49.497Z,21.30
2018-08-23T15:45:19.141Z,21.20
2018-08-23T15:47:47.859Z,21.50
2018-08-23T15:50:16.482Z,21.50
2018-08-23T15:52:45.157Z,21.40
2018-08-23T15:55:13.909Z,21.30
2018-08-23T15:57:42.372Z,21.50
2018-08-23T16:00:10.995Z,21.50
2018-08-23T16:02:39.646Z,21.50
2018-08-23T16:05:08.213Z,21.60
2018-08-23T16:07:36.828Z,21.20
2018-08-23T16:10:06.913Z,21.10
2018-08-23T16:12:35.605Z,21.20
2018-08-23T16:15:09.486Z,21.30
2018-08-23T16:18:44.102Z,21.30
2018-08-23T16:21:12.665Z,21.40
2018-08-23T16:23:41.258Z,21.20
2018-08-23T16:26:09.930Z,21.20
2018-08-23T16:28:38.659Z,21.30
2018-08-23T16:31:07.268Z,21.40
2018-08-23T16:33:35.849Z,21.50
2018-08-23T16:36:04.614Z,21.50
2018-08-23T16:38:33.222Z,21.70
2018-08-23T16:41:01.860Z,21.70
2018-08-23T16:43:30.535Z,21.80
2018-08-23T16:45:59.156Z,21.70
2018-08-23T16:48:27.841Z,21.80
2018-08-23T16:50:56.574Z,21.90
2018-08-23T16:53:26.167Z,22.00
2018-08-23T16:55:54.694Z,22.10
2018-08-23T16:58:23.311Z,22.00
2018-08-23T17:00:52.160Z,22.10
2018-08-23T17:03:20.849Z,22.20
2018-08-23T17:05:49.570Z,22.20
2018-08-23T17:08:18.253Z,22.20
2018-08-23T17:10:47.009Z,22.20
2018-08-23T17:13:20.820Z,22.20
2018-08-23T17:15:54.773Z,22.00
2018-08-23T17:18:23.577Z,21.90
2018-08-23T17:20:52.188Z,21.90
2018-08-23T17:23:21.049Z,21.90
2018-08-23T17:25:49.797Z,21.90
2018-08-23T17:28:18.450Z,22.00
2018-08-23T17:30:47.146Z,22.00
2018-08-23T17:33:15.686Z,21.90
2018-08-23T17:35:44.321Z,21.90
2018-08-23T17:38:13.053Z,21.80
2018-08-23T17:40:41.725Z,21.80
2018-08-23T17:43:10.452Z,21.70
2018-08-23T17:45:39.097Z,21.60
2018-08-23T17:48:08.163Z,21.60
2018-08-23T17:50:36.734Z,21.60
2018-08-23T17:53:05.642Z,21.40
2018-08-23T17:55:34.587Z,21.40
2018-08-23T17:58:05.227Z,21.40
2018-08-23T18:00:33.846Z,21.20
2018-08-23T18:03:02.572Z,21.00
2018-08-23T18:05:31.232Z,20.90
2018-08-23T18:07:59.861Z,20.90
2018-08-23T18:10:28.947Z,20.70
2018-08-23T18:12:57.592Z,20.70
2018-08-23T18:15:31.337Z,20.50
2018-08-23T18:17:59.911Z,20.40
2018-08-23T18:20:28.527Z,20.30
2018-08-23T18:22:57.072Z,20.10
2018-08-23T18:25:25.639Z,20.10
2018-08-23T18:27:54.177Z,20.10
2018-08-23T18:30:22.762Z,20.10
2018-08-23T18:32:51.359Z,20.10
2018-08-23T18:35:19.939Z,19.90
2018-08-23T18:37:48.562Z,19.90
2018-08-23T18:40:17.119Z,19.90
2018-08-23T18:42:45.761Z,20.10
2018-08-23T18:45:14.334Z,20.00
2018-08-23T18:47:43.182Z,20.00
2018-08-23T18:50:11.849Z,20.00
2018-08-23T18:52:40.462Z,20.00
2018-08-23T18:55:09.096Z,20.00
2018-08-23T18:57:37.718Z,20.00
2018-08-23T19:00:07.142Z,20.10
2018-08-23T19:02:35.575Z,20.10
2018-08-23T19:05:04.283Z,20.10
2018-08-23T19:07:38.255Z,20.10
2018-08-23T19:10:06.897Z,20.00
2018-08-23T19:12:35.516Z,20.00
2018-08-23T19:15:04.476Z,20.00
2018-08-23T19:17:38.084Z,20.00
2018-08-23T19:20:07.656Z,20.00
2018-08-23T19:22:36.497Z,20.00
2018-08-23T19:25:05.621Z,19.90
2018-08-23T19:27:34.234Z,20.10
2018-08-23T19:30:02.846Z,20.10
2018-08-23T19:32:31.593Z,20.00
2018-08-23T19:35:00.161Z,20.00
2018-08-23T19:37:28.840Z,19.90
2018-08-23T19:39:57.497Z,19.90
2018-08-23T19:42:26.176Z,19.90
2018-08-23T19:44:57.189Z,19.90
2018-08-23T19:47:31.077Z,19.90
2018-08-23T19:50:01.068Z,19.80
2018-08-23T19:52:29.777Z,19.80
2018-08-23T19:54:58.613Z,19.90
2018-08-23T19:57:27.257Z,20.00
2018-08-23T19:59:55.870Z,19.90
2018-08-23T20:02:24.430Z,19.90
2018-08-23T20:04:53.021Z,19.80
2018-08-23T20:07:21.582Z,19.80
2018-08-23T20:09:50.129Z,19.80
2018-08-23T20:12:18.894Z,19.80
2018-08-23T20:14:47.433Z,19.90
2018-08-23T20:17:16.157Z,19.90
2018-08-23T20:19:44.731Z,19.80
2018-08-23T20:22:13.318Z,19.80
2018-08-23T20:24:41.869Z,19.80
2018-08-23T20:27:10.433Z,19.80
2018-08-23T20:29:39.109Z,19.70
2018-08-23T20:32:07.650Z,19.80
2018-08-23T20:34:36.276Z,19.80
2018-08-23T20:37:05.294Z,19.80
2018-08-23T20:39:33.922Z,19.70
2018-08-23T20:42:04.321Z,19.70
2018-08-23T20:44:33.133Z,19.70
2018-08-23T20:47:08.803Z,19.80
2018-08-23T20:49:43.970Z,19.80
2018-08-23T20:52:12.698Z,19.80
2018-08-23T20:54:44.971Z,19.70
2018-08-23T20:57:14.158Z,19.70
2018-08-23T20:59:42.852Z,19.60
2018-08-23T21:02:11.537Z,19.70
2018-08-23T21:04:40.163Z,19.70
2018-08-23T21:07:08.673Z,19.70
2018-08-23T21:09:37.274Z,19.70
2018-08-23T21:12:06.450Z,19.60
2018-08-23T21:14:35.039Z,19.60
2018-08-23T21:17:03.645Z,19.70
2018-08-23T21:19:32.173Z,19.70
2018-08-23T21:22:00.881Z,19.70
2018-08-23T21:24:29.474Z,19.70
2018-08-23T21:26:58.087Z,19.80
2018-08-23T21:29:26.661Z,19.80
2018-08-23T21:31:55.415Z,19.80
2018-08-23T21:34:23.962Z,19.90
2018-08-23T21:36:52.642Z,19.90
2018-08-23T21:39:21.233Z,19.90
2018-08-23T21:41:49.795Z,19.90
2018-08-23T21:44:18.407Z,19.90
2018-08-23T21:46:47.018Z,20.00
2018-08-23T21:49:15.573Z,20.00
2018-08-23T21:51:44.251Z,20.10
2018-08-23T21:54:13.017Z,20.10
2018-08-23T21:56:41.635Z,20.10
2018-08-23T21:59:10.206Z,20.20
2018-08-23T22:01:38.906Z,20.20
2018-08-23T22:04:07.441Z,20.20
2018-08-23T22:06:36.283Z,20.10
2018-08-23T22:09:07.784Z,20.20
2018-08-23T22:11:36.376Z,20.20
2018-08-23T22:14:05.036Z,20.20
2018-08-23T22:16:33.722Z,20.10
2018-08-23T22:19:02.280Z,20.10
2018-08-23T22:21:30.904Z,20.10
2018-08-23T22:23:59.541Z,20.00
2018-08-23T22:26:28.152Z,20.10
2018-08-23T22:28:56.790Z,20.10
2018-08-23T22:31:25.434Z,20.00
2018-08-23T22:33:54.019Z,20.00
2018-08-23T22:36:22.569Z,20.00
2018-08-23T22:38:51.154Z,19.90
2018-08-23T22:41:19.922Z,19.80
2018-08-23T22:43:48.546Z,19.90
2018-08-23T22:46:17.191Z,19.80
2018-08-23T22:48:45.805Z,19.80
2018-08-23T22:51:14.358Z,19.70
2018-08-23T22:53:42.941Z,19.60
2018-08-23T22:56:11.639Z,19.70
2018-08-23T22:58:40.181Z,19.70
2018-08-23T23:01:08.847Z,19.60
2018-08-23T23:04:46.326Z,19.50
2018-08-23T23:07:14.941Z,19.50
2018-08-23T23:09:43.490Z,19.50
2018-08-23T23:12:12.254Z,19.50
2018-08-23T23:14:40.811Z,19.40
2018-08-23T23:17:10.730Z,19.40
2018-08-23T23:19:39.514Z,19.40
2018-08-23T23:22:08.081Z,19.40
2018-08-23T23:24:41.860Z,19.40
2018-08-23T23:27:10.421Z,19.40
2018-08-23T23:29:39.019Z,19.30
2018-08-23T23:32:07.628Z,19.30
2018-08-23T23:34:36.178Z,19.30
2018-08-23T23:37:04.737Z,19.20
2018-08-23T23:39:33.304Z,19.20
2018-08-23T23:42:01.867Z,19.20
2018-08-23T23:44:30.641Z,19.10
2018-08-23T23:46:59.229Z,19.10
2018-08-23T23:49:27.856Z,19.00
2018-08-23T23:51:56.494Z,19.00
2018-08-23T23:54:25.205Z,18.90
2018-08-23T23:56:54.086Z,18.90
2018-08-23T23:59:22.659Z,18.90
